createdAt,value
2022-08-16T00:02:24.075Z,19.98
2022-08-16T00:04:51.136Z,19.97
2022-08-16T00:07:17.879Z,20.04
2022-08-16T00:09:45.297Z,20.08
2022-08-16T00:12:12.354Z,20.03
2022-08-16T00:14:45.304Z,20.02
2022-08-16T00:17:19.250Z,20.09
2022-08-16T00:19:46.711Z,20.17
2022-08-16T00:22:15.613Z,20.09
2022-08-16T00:24:44.857Z,20.09
2022-08-16T00:27:14.135Z,20.05
2022-08-16T00:29:41.113Z,20.06
2022-08-16T00:32:08.837Z,19.98
2022-08-16T00:34:44.339Z,19.96
2022-08-16T00:37:20.894Z,19.92
2022-08-16T00:39:58.296Z,19.86
2022-08-16T00:42:31.852Z,20.04
2022-08-16T00:45:35.704Z,19.89
2022-08-16T00:48:31.328Z,19.74
2022-08-16T00:50:55.226Z,19.64
2022-08-16T00:53:22.258Z,19.67
2022-08-16T00:55:52.154Z,19.72
2022-08-16T00:58:34.345Z,19.65
2022-08-16T01:01:03.026Z,19.72
2022-08-16T01:03:37.135Z,19.65
2022-08-16T01:06:32.613Z,19.72
2022-08-16T01:09:00.159Z,19.64
2022-08-16T01:11:27.815Z,19.75
2022-08-16T01:14:03.213Z,19.65
2022-08-16T01:16:30.603Z,19.78
2022-08-16T01:19:21.983Z,19.62
2022-08-16T01:22:49.457Z,19.58
2022-08-16T01:25:22.466Z,19.56
2022-08-16T01:28:03.624Z,19.53
2022-08-16T01:30:34.785Z,19.57
2022-08-16T01:33:14.989Z,19.52
2022-08-16T01:35:59.575Z,19.43
2022-08-16T01:38:33.561Z,19.38
2022-08-16T01:41:31.652Z,19.35
2022-08-16T01:44:01.310Z,19.36
2022-08-16T01:46:40.183Z,19.28
2022-08-16T01:49:43.141Z,19.18
2022-08-16T01:52:28.219Z,19.17
2022-08-16T01:54:57.528Z,19.20
2022-08-16T01:57:24.737Z,19.12
2022-08-16T01:59:54.645Z,19.03
2022-08-16T02:02:27.541Z,18.88
2022-08-16T02:04:55.991Z,18.88
2022-08-16T02:07:24.071Z,18.77
2022-08-16T02:09:58.333Z,18.71
2022-08-16T02:12:40.172Z,18.56
2022-08-16T02:15:16.596Z,18.56
2022-08-16T02:17:43.678Z,18.60
2022-08-16T02:20:12.114Z,18.62
2022-08-16T02:22:39.768Z,18.52
2022-08-16T02:25:11.553Z,18.61
2022-08-16T02:27:43.542Z,18.42
2022-08-16T02:30:36.560Z,18.36
2022-08-16T02:33:04.165Z,18.43
2022-08-16T02:35:31.056Z,18.34
2022-08-16T02:38:01.627Z,18.26
2022-08-16T02:40:35.285Z,18.23
2022-08-16T02:43:02.844Z,18.27
2022-08-16T02:45:29.538Z,18.24
2022-08-16T02:48:01.867Z,18.05
2022-08-16T02:50:55.259Z,18.24
2022-08-16T02:53:30.122Z,18.21
2022-08-16T02:55:57.065Z,18.23
2022-08-16T02:58:24.795Z,18.16
2022-08-16T03:00:52.721Z,18.01
2022-08-16T03:03:21.226Z,18.17
2022-08-16T03:05:49.989Z,18.08
2022-08-16T03:08:49.796Z,18.08
2022-08-16T03:11:16.464Z,18.23
2022-08-16T03:13:51.438Z,18.22
2022-08-16T03:16:38.043Z,18.12
2022-08-16T03:19:07.686Z,17.93
2022-08-16T03:21:37.708Z,18.00
2022-08-16T03:24:06.406Z,17.95
2022-08-16T03:26:53.104Z,18.05
2022-08-16T03:29:19.638Z,18.01
2022-08-16T03:31:46.126Z,17.97
2022-08-16T03:34:19.380Z,17.83
2022-08-16T03:36:47.374Z,17.81
2022-08-16T03:39:15.081Z,17.78
2022-08-16T03:41:50.323Z,17.86
2022-08-16T03:44:43.956Z,17.78
2022-08-16T03:47:05.174Z,17.75
2022-08-16T03:49:37.568Z,17.82
2022-08-16T03:52:05.616Z,17.64
2022-08-16T03:54:32.103Z,17.54
2022-08-16T03:57:02.364Z,17.56
2022-08-16T03:59:32.045Z,17.41
2022-08-16T04:02:01.245Z,17.40
2022-08-16T04:04:33.120Z,17.31
2022-08-16T04:07:03.353Z,17.23
2022-08-16T04:09:35.518Z,17.24
2022-08-16T04:12:08.643Z,17.20
2022-08-16T04:14:46.783Z,17.20
2022-08-16T04:17:15.713Z,17.21
2022-08-16T04:19:45.551Z,17.20
2022-08-16T04:22:12.961Z,17.19
2022-08-16T04:24:39.579Z,17.16
2022-08-16T04:27:08.980Z,17.16
2022-08-16T04:29:43.694Z,17.21
2022-08-16T04:32:12.786Z,17.25
2022-08-16T04:34:40.588Z,17.24
2022-08-16T04:37:07.610Z,17.26
2022-08-16T04:39:44.854Z,17.30
2022-08-16T04:42:17.638Z,17.33
2022-08-16T04:44:54.140Z,17.25
2022-08-16T04:47:33.062Z,17.33
2022-08-16T04:50:07.980Z,17.35
2022-08-16T04:52:36.006Z,17.32
2022-08-16T04:55:13.609Z,17.43
2022-08-16T04:57:43.463Z,17.42
2022-08-16T05:00:32.933Z,17.50
2022-08-16T05:03:07.289Z,17.62
2022-08-16T05:05:45.429Z,17.79
2022-08-16T05:08:30.774Z,17.88
2022-08-16T05:11:01.276Z,17.85
2022-08-16T05:13:40.082Z,17.93
2022-08-16T05:16:20.272Z,18.11
2022-08-16T05:18:50.280Z,18.14
2022-08-16T05:21:17.649Z,18.14
2022-08-16T05:23:51.799Z,18.25
2022-08-16T05:26:28.000Z,18.34
2022-08-16T05:28:56.073Z,18.46
2022-08-16T05:31:29.906Z,18.48
2022-08-16T05:33:57.989Z,18.59
2022-08-16T05:36:24.909Z,18.64
2022-08-16T05:39:04.637Z,18.78
2022-08-16T05:41:31.166Z,18.89
2022-08-16T05:44:01.269Z,18.91
2022-08-16T05:46:32.602Z,19.08
2022-08-16T05:49:09.018Z,19.04
2022-08-16T05:51:39.919Z,18.92
2022-08-16T05:54:09.711Z,19.02
2022-08-16T05:56:38.993Z,19.29
2022-08-16T05:59:06.643Z,19.21
2022-08-16T06:01:38.164Z,19.32
2022-08-16T06:04:13.779Z,19.61
2022-08-16T06:06:56.987Z,19.76
2022-08-16T06:09:25.257Z,19.56
2022-08-16T06:11:52.468Z,19.62
2022-08-16T06:14:19.475Z,19.77
2022-08-16T06:16:50.572Z,19.58
2022-08-16T06:19:17.160Z,19.92
2022-08-16T06:21:44.316Z,19.85
2022-08-16T06:24:54.573Z,20.24
2022-08-16T06:26:58.257Z,20.10
2022-08-16T06:29:25.009Z,20.08
2022-08-16T06:31:51.837Z,20.50
2022-08-16T06:34:55.580Z,20.65
2022-08-16T06:37:05.424Z,20.75
2022-08-16T06:39:34.340Z,20.97
2022-08-16T06:42:01.548Z,20.90
2022-08-16T06:44:28.020Z,21.10
2022-08-16T06:46:54.507Z,21.28
2022-08-16T06:49:21.117Z,21.68
2022-08-16T06:51:48.333Z,21.92
2022-08-16T06:54:16.421Z,21.63
2022-08-16T06:56:42.932Z,22.22
2022-08-16T06:59:10.726Z,22.44
2022-08-16T07:01:44.795Z,21.86
2022-08-16T07:04:31.558Z,22.29
2022-08-16T07:07:00.660Z,21.82
2022-08-16T07:09:29.797Z,22.02
2022-08-16T07:12:03.586Z,22.21
2022-08-16T07:14:30.985Z,22.31
2022-08-16T07:16:59.109Z,22.69
2022-08-16T07:20:01.765Z,22.31
2022-08-16T07:22:37.811Z,22.40
2022-08-16T07:25:02.835Z,22.95
2022-08-16T07:27:29.342Z,23.36
2022-08-16T07:30:00.100Z,23.78
2022-08-16T07:32:29.390Z,23.79
2022-08-16T07:34:56.430Z,24.15
2022-08-16T07:37:23.258Z,24.06
2022-08-16T07:39:50.807Z,23.77
2022-08-16T07:42:26.032Z,23.96
2022-08-16T07:45:01.611Z,24.41
2022-08-16T07:47:31.463Z,24.65
2022-08-16T07:49:58.867Z,24.83
2022-08-16T07:52:29.643Z,23.94
2022-08-16T07:54:57.574Z,24.38
2022-08-16T07:57:24.675Z,24.70
2022-08-16T07:59:51.918Z,25.00
2022-08-16T08:02:19.650Z,24.70
2022-08-16T08:04:47.720Z,24.89
2022-08-16T08:07:16.361Z,24.87
2022-08-16T08:09:43.806Z,24.34
2022-08-16T08:12:32.708Z,24.25
2022-08-16T08:14:57.798Z,25.29
2022-08-16T08:17:24.816Z,25.42
2022-08-16T08:20:12.958Z,25.89
2022-08-16T08:23:00.601Z,26.01
2022-08-16T08:25:53.915Z,26.29
2022-08-16T08:28:17.970Z,26.16
2022-08-16T08:30:49.753Z,26.28
2022-08-16T08:33:23.709Z,26.73
2022-08-16T08:35:50.299Z,25.40
2022-08-16T08:38:21.949Z,25.76
2022-08-16T08:41:05.162Z,25.58
2022-08-16T08:43:31.663Z,25.74
2022-08-16T08:46:17.867Z,26.20
2022-08-16T08:48:45.262Z,25.38
2022-08-16T08:51:27.709Z,25.86
2022-08-16T08:54:06.851Z,26.00
2022-08-16T08:56:37.755Z,26.04
2022-08-16T08:59:20.294Z,26.05
2022-08-16T09:01:57.620Z,26.85
2022-08-16T09:04:25.039Z,26.51
2022-08-16T09:06:53.609Z,25.37
2022-08-16T09:09:20.486Z,26.29
2022-08-16T09:11:53.803Z,26.90
2022-08-16T09:14:32.633Z,27.44
2022-08-16T09:17:02.752Z,26.77
2022-08-16T09:19:34.101Z,26.04
2022-08-16T09:22:01.585Z,26.72
2022-08-16T09:24:46.779Z,26.54
2022-08-16T09:27:14.871Z,26.45
2022-08-16T09:29:45.563Z,27.19
2022-08-16T09:32:12.823Z,27.64
2022-08-16T09:34:58.317Z,27.30
2022-08-16T09:37:29.502Z,27.72
2022-08-16T09:39:59.419Z,27.86
2022-08-16T09:42:28.635Z,28.56
2022-08-16T09:45:11.026Z,28.35
2022-08-16T09:47:56.243Z,28.46
2022-08-16T09:50:26.878Z,28.00
2022-08-16T09:53:07.757Z,27.39
2022-08-16T09:55:44.937Z,28.06
2022-08-16T09:58:41.932Z,28.39
2022-08-16T10:01:03.448Z,28.19
2022-08-16T10:03:30.547Z,27.67
2022-08-16T10:05:57.616Z,27.40
2022-08-16T10:08:26.226Z,27.85
2022-08-16T10:11:11.919Z,28.38
2022-08-16T10:13:39.581Z,28.43
2022-08-16T10:18:56.534Z,28.31
2022-08-16T10:21:24.091Z,29.40
2022-08-16T10:23:53.471Z,29.88
2022-08-16T10:27:16.669Z,30.88
2022-08-16T10:29:08.557Z,31.19
2022-08-16T10:31:44.543Z,31.48
2022-08-16T10:34:31.241Z,31.26
2022-08-16T10:37:00.519Z,31.16
2022-08-16T10:39:40.524Z,29.81
2022-08-16T10:42:09.169Z,30.20
2022-08-16T10:44:36.747Z,30.64
2022-08-16T10:47:04.125Z,30.00
2022-08-16T10:49:32.167Z,31.27
2022-08-16T10:52:01.157Z,30.41
2022-08-16T10:54:31.022Z,31.72
2022-08-16T10:57:00.162Z,32.77
2022-08-16T10:59:38.415Z,31.43
2022-08-16T11:02:58.056Z,31.74
2022-08-16T11:05:08.327Z,30.23
2022-08-16T11:07:51.474Z,30.87
2022-08-16T11:13:57.502Z,29.21
2022-08-16T11:19:05.730Z,30.63
2022-08-16T11:22:23.263Z,30.65
2022-08-16T11:24:41.596Z,28.95
2022-08-16T11:27:22.996Z,31.11
2022-08-16T11:29:53.459Z,32.26
2022-08-16T11:32:31.240Z,31.97
2022-08-16T11:35:13.488Z,29.72
2022-08-16T11:40:33.589Z,31.14
2022-08-16T11:43:04.193Z,30.58
2022-08-16T11:45:33.884Z,29.71
2022-08-16T11:48:03.150Z,31.15
2022-08-16T11:50:33.375Z,32.10
2022-08-16T11:53:03.637Z,30.76
2022-08-16T11:55:31.742Z,32.02
2022-08-16T11:58:00.147Z,33.48
2022-08-16T12:00:34.040Z,33.21
2022-08-16T12:03:15.695Z,32.90
2022-08-16T12:05:44.981Z,33.43
2022-08-16T12:08:12.546Z,31.98
2022-08-16T12:10:40.814Z,32.79
2022-08-16T12:13:11.799Z,33.43
2022-08-16T12:15:39.701Z,33.48
2022-08-16T12:18:08.891Z,33.55
2022-08-16T12:20:38.515Z,33.13
2022-08-16T12:23:06.834Z,32.85
2022-08-16T12:25:35.321Z,33.16
2022-08-16T12:28:02.890Z,32.07
2022-08-16T12:30:38.644Z,31.57
2022-08-16T12:33:07.462Z,32.28
2022-08-16T12:35:36.765Z,31.78
2022-08-16T12:38:08.868Z,31.74
2022-08-16T12:40:55.591Z,30.55
2022-08-16T12:43:25.395Z,30.13
2022-08-16T12:45:55.583Z,30.81
2022-08-16T12:48:46.462Z,30.07
2022-08-16T12:51:22.146Z,30.91
2022-08-16T12:53:53.239Z,30.10
2022-08-16T12:56:22.322Z,30.31
2022-08-16T12:58:52.615Z,31.08
2022-08-16T13:01:22.830Z,31.86
2022-08-16T13:03:59.296Z,31.78
2022-08-16T13:06:36.818Z,32.55
2022-08-16T13:09:20.180Z,31.58
2022-08-16T13:12:03.777Z,31.96
2022-08-16T13:14:42.264Z,31.31
2022-08-16T13:17:17.146Z,31.10
2022-08-16T13:22:32.973Z,31.69
2022-08-16T13:24:59.566Z,31.28
2022-08-16T13:27:59.293Z,31.96
2022-08-16T13:30:36.519Z,31.55
2022-08-16T13:33:00.389Z,30.70
2022-08-16T13:35:27.543Z,30.42
2022-08-16T13:38:01.378Z,30.56
2022-08-16T13:40:27.990Z,30.34
2022-08-16T13:42:54.570Z,30.12
2022-08-16T13:45:21.027Z,30.25
2022-08-16T13:47:48.659Z,29.68
2022-08-16T13:50:30.876Z,29.56
2022-08-16T13:52:58.570Z,30.02
2022-08-16T13:55:25.298Z,29.39
2022-08-16T13:58:37.310Z,29.79
2022-08-16T14:00:42.228Z,30.71
2022-08-16T14:03:09.152Z,31.11
2022-08-16T14:05:37.449Z,30.63
2022-08-16T14:08:04.604Z,30.60
2022-08-16T14:10:32.544Z,30.17
2022-08-16T14:12:59.534Z,31.15
2022-08-16T14:15:28.999Z,31.39
2022-08-16T14:18:15.534Z,30.93
2022-08-16T14:20:48.444Z,30.66
2022-08-16T14:23:15.603Z,30.54
2022-08-16T14:25:42.457Z,30.43
2022-08-16T14:28:09.644Z,30.06
2022-08-16T14:30:36.583Z,29.86
2022-08-16T14:33:07.336Z,29.70
2022-08-16T14:35:48.234Z,30.22
2022-08-16T14:38:18.177Z,30.72
2022-08-16T14:40:49.447Z,30.66
2022-08-16T14:43:19.979Z,30.20
2022-08-16T14:45:47.064Z,30.32
2022-08-16T14:48:23.086Z,30.71
2022-08-16T14:50:52.719Z,30.54
2022-08-16T14:53:19.199Z,30.51
2022-08-16T14:55:46.144Z,30.60
2022-08-16T14:58:19.173Z,31.09
2022-08-16T15:00:47.791Z,30.81
2022-08-16T15:03:18.553Z,31.21
2022-08-16T15:05:48.044Z,31.15
2022-08-16T15:08:17.066Z,31.40
2022-08-16T15:10:45.853Z,31.46
2022-08-16T15:13:14.078Z,31.20
2022-08-16T15:15:42.305Z,30.96
2022-08-16T15:18:12.046Z,31.01
2022-08-16T15:20:39.552Z,31.09
2022-08-16T15:23:08.888Z,30.56
2022-08-16T15:25:43.657Z,30.23
2022-08-16T15:28:30.774Z,30.24
2022-08-16T15:31:03.695Z,30.38
2022-08-16T15:33:34.557Z,30.40
2022-08-16T15:36:02.412Z,30.29
2022-08-16T15:38:55.117Z,30.01
2022-08-16T15:41:47.772Z,30.42
2022-08-16T15:44:22.642Z,30.29
2022-08-16T15:46:56.761Z,30.07
2022-08-16T15:49:34.851Z,30.16
2022-08-16T15:52:16.684Z,30.31
2022-08-16T15:54:52.688Z,30.53
2022-08-16T15:57:21.587Z,30.44
2022-08-16T15:59:52.657Z,30.53
2022-08-16T16:02:29.190Z,30.33
2022-08-16T16:05:02.447Z,30.56
2022-08-16T16:07:32.227Z,30.52
2022-08-16T16:10:04.386Z,30.84
2022-08-16T16:12:53.000Z,30.68
2022-08-16T16:15:22.844Z,30.56
2022-08-16T16:17:51.247Z,30.73
2022-08-16T16:20:21.286Z,30.55
2022-08-16T16:22:49.356Z,30.87
2022-08-16T16:25:17.874Z,31.00
2022-08-16T16:27:45.591Z,31.01
2022-08-16T16:30:37.139Z,30.56
2022-08-16T16:33:01.198Z,30.57
2022-08-16T16:35:30.766Z,30.50
2022-08-16T16:37:59.702Z,30.15
2022-08-16T16:40:32.248Z,30.44
2022-08-16T16:43:00.096Z,30.21
2022-08-16T16:45:33.576Z,30.46
2022-08-16T16:48:12.680Z,29.96
2022-08-16T16:50:45.430Z,30.21
2022-08-16T16:53:17.375Z,30.24
2022-08-16T16:55:51.577Z,29.92
2022-08-16T16:58:43.431Z,30.09
2022-08-16T17:01:10.221Z,29.95
2022-08-16T17:03:38.626Z,30.03
2022-08-16T17:06:09.373Z,30.13
2022-08-16T17:08:41.348Z,30.05
2022-08-16T17:11:09.862Z,30.02
2022-08-16T17:13:37.746Z,29.69
2022-08-16T17:16:04.917Z,29.84
2022-08-16T17:19:14.373Z,29.82
2022-08-16T17:21:18.804Z,29.46
2022-08-16T17:23:58.226Z,29.64
2022-08-16T17:26:30.017Z,29.58
2022-08-16T17:29:02.105Z,29.54
2022-08-16T17:31:40.965Z,29.69
2022-08-16T17:34:28.783Z,29.43
2022-08-16T17:36:58.864Z,29.29
2022-08-16T17:39:29.182Z,29.45
2022-08-16T17:41:56.916Z,29.35
2022-08-16T17:44:23.388Z,29.21
2022-08-16T17:46:52.218Z,29.31
2022-08-16T17:49:19.571Z,29.28
2022-08-16T17:51:46.047Z,29.19
2022-08-16T17:54:20.335Z,29.08
2022-08-16T17:57:00.702Z,29.03
2022-08-16T17:59:27.951Z,28.89
2022-08-16T18:01:54.797Z,28.86
2022-08-16T18:04:49.780Z,28.73
2022-08-16T18:07:08.413Z,28.57
2022-08-16T18:09:36.931Z,28.45
2022-08-16T18:12:50.704Z,28.28
2022-08-16T18:15:17.142Z,28.17
2022-08-16T18:17:43.986Z,28.05
2022-08-16T18:20:30.633Z,27.89
2022-08-16T18:23:09.037Z,27.84
2022-08-16T18:25:42.375Z,27.69
2022-08-16T18:28:09.103Z,27.60
2022-08-16T18:30:35.724Z,27.54
2022-08-16T18:33:02.273Z,27.33
2022-08-16T18:35:28.765Z,27.32
2022-08-16T18:37:55.947Z,27.12
2022-08-16T18:40:22.576Z,27.01
2022-08-16T18:44:22.269Z,26.91
2022-08-16T18:46:09.419Z,26.62
2022-08-16T18:48:35.980Z,26.60
2022-08-16T18:51:09.263Z,26.44
2022-08-16T18:53:38.113Z,26.34
2022-08-16T18:56:04.824Z,26.27
2022-08-16T18:58:33.922Z,26.19
2022-08-16T19:01:00.523Z,25.99
2022-08-16T19:03:30.312Z,25.94
2022-08-16T19:06:03.904Z,25.73
2022-08-16T19:08:31.684Z,25.66
2022-08-16T19:10:58.250Z,25.50
2022-08-16T19:13:27.076Z,25.42
2022-08-16T19:15:57.031Z,25.27
2022-08-16T19:18:24.698Z,25.24
2022-08-16T19:20:51.978Z,25.12
2022-08-16T19:23:20.821Z,25.13
2022-08-16T19:25:54.975Z,24.90
2022-08-16T19:28:57.943Z,24.85
2022-08-16T19:31:26.165Z,24.80
2022-08-16T19:33:56.489Z,24.60
2022-08-16T19:36:31.068Z,24.61
2022-08-16T19:39:04.344Z,24.45
2022-08-16T19:41:32.309Z,24.31
2022-08-16T19:43:59.075Z,24.19
2022-08-16T19:46:25.614Z,24.23
2022-08-16T19:48:52.078Z,24.06
2022-08-16T19:51:18.542Z,23.89
2022-08-16T19:53:45.020Z,23.84
2022-08-16T19:56:11.805Z,23.75
2022-08-16T19:58:51.002Z,23.64
2022-08-16T20:01:25.916Z,23.60
2022-08-16T20:03:52.378Z,23.52
2022-08-16T20:06:37.847Z,23.37
2022-08-16T20:09:05.973Z,23.46
2022-08-16T20:11:32.714Z,23.26
2022-08-16T20:13:59.469Z,23.19
2022-08-16T20:16:26.236Z,23.22
2022-08-16T20:18:52.734Z,23.17
2022-08-16T20:21:19.522Z,23.09
2022-08-16T20:23:46.358Z,23.07
2022-08-16T20:26:12.872Z,23.02
2022-08-16T20:28:52.357Z,23.03
2022-08-16T20:31:21.370Z,23.04
2022-08-16T20:33:47.947Z,23.00
2022-08-16T20:36:16.559Z,23.03
2022-08-16T20:38:46.631Z,23.06
2022-08-16T20:41:13.379Z,23.04
2022-08-16T20:43:39.858Z,22.79
2022-08-16T20:46:06.385Z,22.72
2022-08-16T20:48:32.844Z,22.74
2022-08-16T20:50:59.311Z,22.66
2022-08-16T20:53:25.827Z,22.51
2022-08-16T20:55:52.284Z,22.46
2022-08-16T20:58:18.772Z,22.39
2022-08-16T21:00:45.568Z,22.33
2022-08-16T21:03:13.347Z,22.31
2022-08-16T21:05:39.907Z,22.18
2022-08-16T21:08:51.591Z,22.16
2022-08-16T21:10:53.534Z,22.22
2022-08-16T21:13:20.892Z,22.06
2022-08-16T21:15:47.856Z,22.03
2022-08-16T21:18:15.024Z,22.01
2022-08-16T21:20:41.491Z,21.94
2022-08-16T21:23:10.025Z,21.95
2022-08-16T21:25:39.631Z,21.98
2022-08-16T21:28:39.585Z,21.91
2022-08-16T21:30:59.799Z,21.75
2022-08-16T21:33:26.346Z,21.84
2022-08-16T21:35:53.720Z,21.74
2022-08-16T21:38:30.224Z,21.68
2022-08-16T21:41:02.454Z,21.63
2022-08-16T21:43:32.709Z,21.59
2022-08-16T21:46:03.600Z,21.54
2022-08-16T21:48:34.094Z,21.70
2022-08-16T21:51:06.879Z,21.72
2022-08-16T21:53:33.692Z,21.65
2022-08-16T21:56:00.906Z,21.63
2022-08-16T21:58:28.374Z,21.52
2022-08-16T22:00:54.994Z,21.44
2022-08-16T22:03:23.441Z,21.30
2022-08-16T22:06:11.843Z,21.31
2022-08-16T22:08:45.692Z,21.17
2022-08-16T22:11:22.582Z,21.15
2022-08-16T22:13:56.446Z,21.09
2022-08-16T22:16:26.102Z,20.99
2022-08-16T22:18:52.884Z,21.01
2022-08-16T22:21:20.286Z,20.90
2022-08-16T22:23:55.242Z,21.06
2022-08-16T22:26:31.325Z,20.90
2022-08-16T22:29:00.677Z,20.91
2022-08-16T22:31:27.476Z,20.89
2022-08-16T22:33:54.964Z,20.86
2022-08-16T22:36:21.415Z,20.67
2022-08-16T22:38:55.981Z,20.72
2022-08-16T22:41:25.032Z,20.69
2022-08-16T22:43:52.018Z,20.69
2022-08-16T22:46:19.583Z,20.63
2022-08-16T22:48:46.335Z,20.63
2022-08-16T22:51:13.079Z,20.50
2022-08-16T22:53:39.565Z,20.52
2022-08-16T22:56:06.310Z,20.57
2022-08-16T22:58:36.589Z,20.47
2022-08-16T23:01:05.781Z,20.49
2022-08-16T23:03:32.790Z,20.56
2022-08-16T23:06:00.555Z,20.49
2022-08-16T23:08:38.632Z,20.38
2022-08-16T23:11:07.546Z,20.49
2022-08-16T23:13:34.045Z,20.43
2022-08-16T23:16:10.595Z,20.32
2022-08-16T23:18:38.957Z,20.18
2022-08-16T23:21:09.213Z,20.15
2022-08-16T23:23:36.213Z,20.05
2022-08-16T23:26:46.135Z,19.96
2022-08-16T23:28:51.058Z,19.91
2022-08-16T23:31:17.654Z,19.90
2022-08-16T23:33:45.101Z,19.92
2022-08-16T23:36:11.960Z,19.96
2022-08-16T23:38:39.701Z,19.89
2022-08-16T23:41:11.540Z,19.96
2022-08-16T23:43:41.830Z,19.84
2022-08-16T23:46:13.138Z,19.79
2022-08-16T23:49:59.065Z,19.64
2022-08-16T23:51:26.288Z,19.58
2022-08-16T23:53:55.668Z,19.59
2022-08-16T23:56:22.201Z,19.73
2022-08-16T23:58:54.411Z,19.57
